Time;durP1;ratioP1;P1;durP2;ratioP2;P2;SDS_P1;SDS_P2;PMS_P1;PMS_P2;Temp;Humidity;BMP_temperature;BMP_pressure;BME280_temperature;BME280_humidity;BME280_pressure;Samples;Min_cycle;Max_cycle;Signal;HPM_P1;HPM_P2
2020/12/09 00:01:48;;;;;;;61.80;34.97;;;;;;;4.57;77.83;94571.63;4199261;28;20110;-68
2020/12/09 00:03:49;;;;;;;69.65;35.85;;;;;;;4.61;78.22;94562.66;4188408;28;20094;-69
2020/12/09 00:05:51;;;;;;;80.35;41.30;;;;;;;4.61;78.11;94562.66;4175834;28;20093;-69
2020/12/09 00:07:53;;;;;;;83.88;42.03;;;;;;;4.55;77.98;94569.16;4159778;28;20107;-69
2020/12/09 00:09:54;;;;;;;80.40;40.67;;;;;;;4.64;78.15;94560.59;4188780;28;20047;-69
2020/12/09 00:11:55;;;;;;;82.35;41.05;;;;;;;4.70;78.17;94561.88;4178049;28;20083;-70
2020/12/09 00:13:57;;;;;;;77.68;40.15;;;;;;;4.77;77.49;94567.38;4192891;28;20067;-69
2020/12/09 00:15:58;;;;;;;82.68;42.30;;;;;;;4.77;77.82;94560.41;4194268;28;20447;-69
2020/12/09 00:17:59;;;;;;;75.65;40.25;;;;;;;4.70;77.50;94557.50;4185402;28;20446;-69
2020/12/09 00:20:01;;;;;;;76.93;39.42;;;;;;;4.69;77.72;94566.25;4175330;28;20146;-68
2020/12/09 00:22:03;;;;;;;73.35;38.05;;;;;;;4.71;77.87;94561.75;4188356;28;20117;-69
2020/12/09 00:24:05;;;;;;;69.13;37.05;;;;;;;4.78;77.78;94559.47;4194218;28;20462;-70
2020/12/09 00:26:06;;;;;;;71.43;38.28;;;;;;;4.76;77.60;94563.97;4167323;28;20472;-70
2020/12/09 00:28:08;;;;;;;68.22;36.75;;;;;;;4.80;77.36;94554.16;4170016;28;20099;-69
2020/12/09 00:30:09;;;;;;;71.00;37.70;;;;;;;4.78;76.92;94546.50;4193863;28;20049;-69
2020/12/09 00:32:11;;;;;;;68.30;36.75;;;;;;;4.79;77.50;94549.91;4193627;28;20044;-70
2020/12/09 00:34:12;;;;;;;71.28;36.58;;;;;;;4.75;77.63;94558.91;4176550;28;20045;-69
2020/12/09 00:36:14;;;;;;;68.20;36.63;;;;;;;4.72;77.27;94560.00;4162718;28;20061;-70
2020/12/09 00:38:15;;;;;;;70.03;38.08;;;;;;;4.72;77.56;94554.78;4158520;28;20049;-69
2020/12/09 00:40:16;;;;;;;74.03;37.90;;;;;;;4.76;77.58;94556.19;4194153;28;20560;-69
2020/12/09 00:42:18;;;;;;;76.72;39.22;;;;;;;4.79;77.45;94555.09;4175478;28;20049;-70
2020/12/09 00:44:19;;;;;;;68.43;36.30;;;;;;;4.80;77.08;94552.41;4192984;28;20052;-68
2020/12/09 00:46:23;;;;;;;69.53;36.38;;;;;;;4.77;77.29;94550.03;4176626;28;20198;-70
2020/12/09 00:48:24;;;;;;;70.72;38.42;;;;;;;4.74;77.03;94542.50;4194721;28;20412;-71
2020/12/09 00:50:28;;;;;;;78.30;39.17;;;;;;;4.71;77.46;94545.34;4192736;28;20051;-67
2020/12/09 00:52:30;;;;;;;77.07;38.97;;;;;;;4.58;77.19;94544.72;4194286;28;20566;-69
2020/12/09 00:54:31;;;;;;;81.40;39.50;;;;;;;4.43;77.90;94546.81;4175403;28;20074;-69
2020/12/09 00:56:33;;;;;;;72.80;39.72;;;;;;;4.42;78.51;94550.34;4191202;28;20268;-68
2020/12/09 00:58:34;;;;;;;74.75;39.45;;;;;;;4.47;78.67;94550.78;4209763;28;20048;-69
2020/12/09 01:00:36;;;;;;;78.88;38.55;;;;;;;4.36;79.18;94543.88;4184844;28;20068;-69
2020/12/09 01:02:37;;;;;;;72.95;39.00;;;;;;;4.39;78.70;94548.84;4184645;28;20078;-69
2020/12/09 01:04:38;;;;;;;67.85;38.47;;;;;;;4.45;78.92;94548.34;4182727;28;20052;-69
2020/12/09 01:06:40;;;;;;;76.03;40.10;;;;;;;4.48;78.90;94542.88;4192839;28;20169;-68
2020/12/09 01:08:41;;;;;;;70.70;36.92;;;;;;;4.40;78.85;94540.09;4193206;28;20055;-70
2020/12/09 01:10:42;;;;;;;70.32;36.67;;;;;;;4.34;78.77;94535.41;4192449;28;20411;-69
2020/12/09 01:12:44;;;;;;;73.75;37.47;;;;;;;4.33;78.64;94538.16;4156734;28;20110;-69
2020/12/09 01:14:45;;;;;;;67.13;35.75;;;;;;;4.27;78.98;94536.88;4175260;28;20534;-70
2020/12/09 01:16:52;;;;;;;64.72;35.50;;;;;;;4.22;79.12;94541.63;4176584;28;20053;-69
2020/12/09 01:18:54;;;;;;;65.13;35.50;;;;;;;4.25;79.15;94536.97;4193837;28;20510;-68
2020/12/09 01:20:55;;;;;;;62.63;35.63;;;;;;;4.28;79.53;94531.56;4174361;28;20439;-69
2020/12/09 01:22:57;;;;;;;67.18;36.40;;;;;;;4.20;79.32;94533.13;4191674;28;20045;-69
2020/12/09 01:24:58;;;;;;;70.35;35.30;;;;;;;4.23;79.95;94522.50;4174728;28;20065;-69
2020/12/09 01:27:00;;;;;;;63.28;35.45;;;;;;;4.33;79.70;94523.41;4190227;28;20060;-69
2020/12/09 01:29:01;;;;;;;70.13;35.17;;;;;;;4.43;79.49;94513.94;4191902;28;20124;-68
2020/12/09 01:31:02;;;;;;;62.97;33.58;;;;;;;4.53;78.46;94528.72;4192544;28;20574;-68
2020/12/09 01:33:03;;;;;;;67.93;35.88;;;;;;;4.58;78.33;94523.97;4193677;28;20415;-70
2020/12/09 01:35:05;;;;;;;69.97;35.10;;;;;;;4.64;77.51;94519.09;4192192;28;20048;-69
2020/12/09 01:37:06;;;;;;;69.75;35.88;;;;;;;4.58;77.98;94508.41;4193061;28;20052;-68
2020/12/09 01:39:07;;;;;;;85.70;41.40;;;;;;;4.09;79.25;94508.91;4191746;28;20060;-69
2020/12/09 01:41:08;;;;;;;80.47;40.45;;;;;;;4.05;80.01;94504.91;4193386;28;20048;-70
2020/12/09 01:43:10;;;;;;;78.55;38.05;;;;;;;4.02;79.64;94502.56;4190517;28;20143;-78
2020/12/09 01:45:11;;;;;;;79.55;38.45;;;;;;;4.07;79.96;94510.78;4193686;28;20062;-79
2020/12/09 01:47:13;;;;;;;77.15;39.08;;;;;;;4.17;79.66;94510.84;4192225;28;20116;-78
2020/12/09 01:49:14;;;;;;;87.60;38.67;;;;;;;4.25;79.21;94515.41;4174426;28;20144;-78
2020/12/09 01:51:16;;;;;;;83.80;38.45;;;;;;;4.29;78.47;94509.84;4175203;28;20045;-79
2020/12/09 01:53:17;;;;;;;79.20;39.90;;;;;;;4.36;78.39;94504.16;4165355;28;20080;-78
2020/12/09 01:55:18;;;;;;;85.78;41.08;;;;;;;4.36;78.62;94502.41;4200231;28;20048;-78
2020/12/09 01:57:38;;;;;;;84.97;40.45;;;;;;;4.44;78.25;94502.59;4190990;28;20056;-79
2020/12/09 01:59:40;;;;;;;86.20;39.42;;;;;;;4.46;78.42;94503.28;4196018;28;20044;-77
2020/12/09 02:01:41;;;;;;;78.65;39.40;;;;;;;4.46;77.99;94505.06;4204192;28;20171;-79
2020/12/09 02:03:42;;;;;;;80.05;38.83;;;;;;;4.51;77.75;94506.31;4201347;28;20105;-77
2020/12/09 02:05:43;;;;;;;91.90;42.22;;;;;;;4.48;77.68;94506.56;4194383;28;20499;-69
2020/12/09 02:07:45;;;;;;;90.72;41.67;;;;;;;4.18;79.21;94493.53;4192763;28;20056;-68
2020/12/09 02:09:56;;;;;;;94.40;44.97;;;;;;;3.83;80.45;94492.84;4146832;28;20529;-69
2020/12/09 02:11:57;;;;;;;94.45;43.22;;;;;;;3.92;81.00;94493.06;4182901;28;20417;-70
2020/12/09 02:13:58;;;;;;;97.03;43.38;;;;;;;3.97;79.92;94493.50;4188335;28;20058;-69
2020/12/09 02:16:01;;;;;;;90.43;42.42;;;;;;;4.03;79.91;94488.66;4193113;28;20174;-69
2020/12/09 02:18:02;;;;;;;90.53;43.17;;;;;;;4.03;80.58;94495.59;4192450;28;20052;-69
2020/12/09 02:20:08;;;;;;;101.75;45.00;;;;;;;3.66;81.87;94493.38;4173401;28;20118;-68
2020/12/09 02:22:10;;;;;;;90.47;43.67;;;;;;;3.69;81.94;94501.72;4191922;28;20492;-69
2020/12/09 02:24:12;;;;;;;96.25;44.65;;;;;;;3.68;81.57;94496.69;4189398;28;20044;-68
2020/12/09 02:26:13;;;;;;;87.70;42.03;;;;;;;3.85;81.67;94503.06;4174256;28;20160;-69
2020/12/09 02:28:14;;;;;;;92.00;42.17;;;;;;;3.86;81.50;94502.16;4139502;28;20058;-69
2020/12/09 02:30:15;;;;;;;84.85;42.08;;;;;;;3.91;81.21;94497.41;4167427;28;20304;-76
2020/12/09 02:32:17;;;;;;;97.85;44.63;;;;;;;3.92;81.19;94496.47;4172318;28;20079;-78
2020/12/09 02:34:18;;;;;;;102.15;45.00;;;;;;;3.58;81.73;94506.94;4154775;28;20057;-79
2020/12/09 02:36:19;;;;;;;94.30;42.88;;;;;;;3.65;82.16;94502.09;4156640;28;20049;-77
2020/12/09 02:38:21;;;;;;;97.03;45.30;;;;;;;3.68;81.62;94513.03;4160306;28;20126;-79
2020/12/09 02:40:22;;;;;;;90.45;42.75;;;;;;;3.48;82.07;94511.19;4160069;28;20143;-77
2020/12/09 02:42:24;;;;;;;91.47;43.70;;;;;;;3.41;82.99;94510.84;4158550;28;20132;-78
2020/12/09 02:44:25;;;;;;;83.97;41.70;;;;;;;3.60;82.68;94509.41;4178960;28;20083;-78
2020/12/09 02:46:26;;;;;;;87.00;43.97;;;;;;;3.62;82.56;94510.94;4164955;28;20053;-78
2020/12/09 02:48:27;;;;;;;97.03;43.00;;;;;;;3.77;81.75;94500.31;4153755;28;20076;-78
2020/12/09 02:50:29;;;;;;;87.72;41.97;;;;;;;3.69;81.83;94495.72;4163510;28;20049;-68
2020/12/09 02:52:30;;;;;;;89.40;42.38;;;;;;;3.39;82.94;94497.19;4157812;28;20114;-68
2020/12/09 02:54:31;;;;;;;93.57;44.30;;;;;;;3.32;83.65;94496.03;4152364;28;20061;-68
2020/12/09 02:56:32;;;;;;;89.82;42.15;;;;;;;3.50;83.23;94496.34;4156414;28;20385;-69
2020/12/09 02:58:58;;;;;;;77.60;38.63;;;;;;;3.55;82.69;94504.59;4158016;28;20057;-69
2020/12/09 03:01:00;;;;;;;79.82;40.40;;;;;;;3.48;82.47;94514.63;4159177;28;20045;-68
2020/12/09 03:03:03;;;;;;;78.05;40.75;;;;;;;3.54;83.07;94518.47;4161189;28;20241;-69
2020/12/09 03:05:04;;;;;;;86.05;41.33;;;;;;;3.56;83.08;94503.63;4163695;28;20481;-69
2020/12/09 03:07:05;;;;;;;89.10;42.88;;;;;;;3.54;82.76;94513.28;4162205;28;20040;-70
2020/12/09 03:09:07;;;;;;;79.35;38.63;;;;;;;3.64;82.74;94516.81;4173948;28;20053;-69
2020/12/09 03:11:08;;;;;;;79.22;37.45;;;;;;;3.83;82.18;94515.34;4173837;28;20773;-69
2020/12/09 03:13:09;;;;;;;73.47;38.97;;;;;;;3.89;81.94;94514.84;4160759;28;20416;-70
2020/12/09 03:15:10;;;;;;;71.72;37.08;;;;;;;3.99;81.54;94518.34;4146047;28;20089;-69
2020/12/09 03:17:11;;;;;;;75.32;38.13;;;;;;;4.02;81.27;94512.09;4167145;28;20077;-68
2020/12/09 03:19:13;;;;;;;71.00;35.35;;;;;;;3.86;82.26;94504.75;4147939;28;20112;-68
2020/12/09 03:21:14;;;;;;;60.10;31.73;;;;;;;3.86;82.99;94505.56;4176564;28;20060;-69
2020/12/09 03:23:15;;;;;;;53.50;29.25;;;;;;;4.01;83.05;94500.91;4160577;28;20465;-68
2020/12/09 03:25:17;;;;;;;54.35;27.30;;;;;;;4.13;82.66;94504.28;4153918;28;20050;-69
2020/12/09 03:27:18;;;;;;;47.88;26.80;;;;;;;4.26;82.07;94498.94;4164616;28;20553;-69
2020/12/09 03:29:19;;;;;;;49.30;28.45;;;;;;;4.42;81.54;94508.84;4193153;28;20120;-69
2020/12/09 03:31:20;;;;;;;50.15;27.40;;;;;;;4.55;80.97;94499.09;4195141;28;20048;-68
2020/12/09 03:33:22;;;;;;;45.80;27.77;;;;;;;4.68;80.48;94504.09;4178668;28;20051;-68
2020/12/09 03:35:23;;;;;;;47.38;27.27;;;;;;;4.75;80.15;94494.03;4176951;28;20057;-69
2020/12/09 03:37:24;;;;;;;52.15;29.98;;;;;;;4.84;79.79;94493.25;4175940;28;20250;-68
2020/12/09 03:39:26;;;;;;;54.55;28.40;;;;;;;4.87;78.86;94493.00;4177190;28;20049;-69
2020/12/09 03:41:27;;;;;;;37.15;22.63;;;;;;;4.80;80.14;94489.28;4174718;28;20094;-70
2020/12/09 03:43:29;;;;;;;38.55;21.88;;;;;;;4.80;79.53;94484.91;4191529;28;20053;-69
2020/12/09 03:45:30;;;;;;;24.48;16.55;;;;;;;4.89;79.92;94480.72;4173020;28;20056;-70
2020/12/09 03:47:31;;;;;;;20.95;14.88;;;;;;;4.93;79.94;94469.94;4193428;28;20052;-70
2020/12/09 03:49:33;;;;;;;18.85;14.57;;;;;;;4.96;79.68;94476.66;4193815;28;20051;-70
2020/12/09 03:51:34;;;;;;;20.58;15.25;;;;;;;5.04;79.74;94478.59;4194779;28;20396;-68
2020/12/09 03:53:36;;;;;;;21.60;15.25;;;;;;;5.04;79.15;94476.81;4176405;28;20053;-69
2020/12/09 03:55:37;;;;;;;18.60;14.20;;;;;;;5.12;79.29;94482.19;4195173;28;20537;-70
2020/12/09 03:57:38;;;;;;;18.90;14.82;;;;;;;5.18;79.19;94485.19;4174483;28;20075;-68
2020/12/09 03:59:39;;;;;;;16.65;12.40;;;;;;;5.20;78.66;94472.91;4193181;28;20204;-69
2020/12/09 04:01:41;;;;;;;19.75;13.93;;;;;;;5.21;78.61;94470.19;4194905;28;20044;-69
2020/12/09 04:03:42;;;;;;;18.02;13.55;;;;;;;5.27;78.48;94461.88;4175667;28;20048;-70
2020/12/09 04:05:43;;;;;;;18.75;13.80;;;;;;;5.25;77.69;94468.97;4176331;28;20045;-69
2020/12/09 04:07:45;;;;;;;17.05;12.80;;;;;;;5.27;78.22;94469.66;4207519;28;20048;-70
2020/12/09 04:09:46;;;;;;;16.63;13.23;;;;;;;5.27;78.23;94468.81;4161817;28;20057;-70
2020/12/09 04:11:49;;;;;;;19.88;13.88;;;;;;;5.26;78.09;94472.38;4197291;28;20426;-69
2020/12/09 04:13:50;;;;;;;17.05;13.45;;;;;;;5.32;78.24;94475.28;4182061;28;20140;-69
2020/12/09 04:15:51;;;;;;;16.83;13.00;;;;;;;5.37;77.96;94476.66;4193696;28;20435;-68
2020/12/09 04:17:52;;;;;;;17.25;12.80;;;;;;;5.38;77.90;94479.13;4194007;28;20056;-69
2020/12/09 04:19:54;;;;;;;17.50;13.13;;;;;;;5.27;77.87;94480.06;4194023;28;20110;-69
2020/12/09 04:21:56;;;;;;;19.15;13.30;;;;;;;5.25;78.07;94468.97;4158335;28;20425;-69
2020/12/09 04:23:57;;;;;;;19.23;13.00;;;;;;;5.27;78.46;94471.41;4193772;28;20048;-69
2020/12/09 04:25:58;;;;;;;19.30;13.15;;;;;;;5.24;78.17;94477.69;4176712;28;20049;-69
2020/12/09 04:27:59;;;;;;;16.80;12.05;;;;;;;5.16;77.94;94467.13;4191746;28;20065;-69
2020/12/09 04:30:00;;;;;;;17.67;12.80;;;;;;;5.19;78.35;94458.28;4176135;28;20065;-69
2020/12/09 04:32:02;;;;;;;16.25;12.65;;;;;;;5.17;78.54;94453.22;4193811;28;20044;-69
2020/12/09 04:34:04;;;;;;;18.90;13.18;;;;;;;5.15;78.22;94449.13;4173199;28;20049;-69
2020/12/09 04:36:06;;;;;;;18.00;13.10;;;;;;;5.08;78.68;94451.44;4193990;28;20044;-70
2020/12/09 04:38:07;;;;;;;19.30;13.30;;;;;;;5.06;78.73;94448.13;4193447;28;20064;-71
2020/12/09 04:40:08;;;;;;;18.90;14.35;;;;;;;5.13;78.65;94444.03;4193765;28;20541;-70
2020/12/09 04:42:16;;;;;;;18.88;13.38;;;;;;;5.18;78.56;94447.06;4174855;28;20057;-70
2020/12/09 04:44:18;;;;;;;20.80;13.20;;;;;;;5.13;78.64;94441.44;4194463;28;20053;-69
2020/12/09 04:46:19;;;;;;;18.95;13.65;;;;;;;5.10;78.95;94444.31;4174994;28;20053;-79
2020/12/09 04:48:24;;;;;;;17.52;12.57;;;;;;;5.14;78.99;94445.69;4194636;28;20054;-78
2020/12/09 04:50:27;;;;;;;17.52;12.77;;;;;;;5.12;78.31;94445.03;4175482;28;20538;-77
2020/12/09 04:52:42;;;;;;;18.40;12.98;;;;;;;5.12;78.66;94443.22;4176381;28;20446;-76
2020/12/09 04:54:45;;;;;;;17.98;12.40;;;;;;;5.12;79.08;94452.81;4193794;28;20091;-79
2020/12/09 04:56:54;;;;;;;18.58;12.57;;;;;;;5.16;78.80;94448.16;4174838;28;20484;-77
2020/12/09 04:58:56;;;;;;;17.60;12.30;;;;;;;5.17;78.40;94445.44;4175584;28;20121;-77
2020/12/09 05:01:08;;;;;;;16.25;11.70;;;;;;;5.17;78.88;94450.63;4176488;28;20216;-77
2020/12/09 05:03:13;;;;;;;17.05;12.13;;;;;;;5.06;78.81;94448.13;4181580;28;20087;-79
2020/12/09 05:05:20;;;;;;;20.15;12.73;;;;;;;4.93;79.92;94454.38;4192938;28;20048;-77
2020/12/09 05:07:24;;;;;;;18.60;12.68;;;;;;;5.02;79.26;94452.75;4193693;28;20060;-68
2020/12/09 05:09:26;;;;;;;17.33;11.80;;;;;;;5.03;79.44;94445.78;4159060;28;20065;-70
2020/12/09 05:11:28;;;;;;;16.90;12.02;;;;;;;5.02;78.97;94439.78;4188746;28;20125;-69
2020/12/09 05:13:30;;;;;;;18.02;11.85;;;;;;;5.00;79.57;94446.88;4175808;28;20472;-69
2020/12/09 05:15:32;;;;;;;16.40;11.25;;;;;;;4.94;80.20;94442.19;4176387;28;20519;-69
2020/12/09 05:17:39;;;;;;;17.77;11.70;;;;;;;4.86;79.84;94442.88;4158281;28;20543;-68
2020/12/09 05:19:42;;;;;;;17.95;11.90;;;;;;;4.88;79.74;94440.97;4191686;28;20102;-69
2020/12/09 05:21:45;;;;;;;16.13;10.70;;;;;;;4.97;79.32;94425.53;4190224;28;20492;-70
2020/12/09 05:23:59;;;;;;;17.60;11.73;;;;;;;5.01;79.48;94430.38;4190455;28;20090;-69
2020/12/09 05:26:01;;;;;;;16.85;11.75;;;;;;;5.01;79.71;94429.50;4170157;28;20139;-69
2020/12/09 05:28:03;;;;;;;16.85;11.48;;;;;;;4.97;78.94;94425.53;4187794;28;20067;-69
2020/12/09 05:30:04;;;;;;;17.48;10.98;;;;;;;4.90;79.84;94418.31;4174698;28;20091;-69
2020/12/09 05:32:06;;;;;;;17.48;11.18;;;;;;;4.88;79.73;94411.56;4174352;28;20378;-69
2020/12/09 05:34:22;;;;;;;19.42;13.90;;;;;;;4.97;79.68;94422.94;4189647;28;20045;-69
2020/12/09 05:36:26;;;;;;;22.67;13.80;;;;;;;5.03;79.64;94418.03;4192130;28;20055;-69
2020/12/09 05:38:28;;;;;;;33.28;19.98;;;;;;;4.98;79.60;94414.22;4175412;28;20052;-80
2020/12/09 05:40:30;;;;;;;16.80;11.20;;;;;;;4.95;79.20;94409.28;4171867;28;20075;-78
2020/12/09 05:42:31;;;;;;;17.70;11.38;;;;;;;4.93;80.11;94410.25;4190832;28;20060;-77
2020/12/09 05:44:33;;;;;;;14.70;10.95;;;;;;;4.97;79.71;94412.56;4193714;28;20076;-77
2020/12/09 05:46:34;;;;;;;12.98;9.18;;;;;;;4.91;79.24;94413.94;4197993;28;20051;-79
2020/12/09 05:48:36;;;;;;;15.60;11.27;;;;;;;4.92;79.57;94421.56;4182408;28;20049;-78
2020/12/09 05:50:51;;;;;;;15.02;11.02;;;;;;;4.93;79.81;94431.00;4186013;28;20060;-80
2020/12/09 05:52:52;;;;;;;18.67;11.48;;;;;;;4.94;79.98;94439.59;4162676;28;20132;-78
2020/12/09 05:54:54;;;;;;;16.23;11.02;;;;;;;4.98;78.99;94451.38;4190119;28;20044;-69
2020/12/09 05:56:56;;;;;;;14.65;10.43;;;;;;;4.93;79.35;94449.19;4199261;28;20045;-68
2020/12/09 05:58:58;;;;;;;19.83;11.67;;;;;;;4.92;79.22;94452.72;4173967;28;20057;-69
2020/12/09 06:01:18;;;;;;;16.80;11.27;;;;;;;4.93;79.33;94449.19;4192540;28;20067;-69
2020/12/09 06:03:19;;;;;;;15.30;10.57;;;;;;;4.96;79.56;94447.28;4177433;28;20061;-69
2020/12/09 06:05:20;;;;;;;16.65;10.88;;;;;;;4.95;79.42;94443.84;4177370;28;20097;-70
2020/12/09 06:07:24;;;;;;;15.90;10.93;;;;;;;4.99;79.69;94434.00;4196048;28;20044;-68
2020/12/09 06:09:26;;;;;;;18.10;12.55;;;;;;;5.00;78.81;94433.09;4195209;28;20052;-70
2020/12/09 06:11:29;;;;;;;16.00;11.60;;;;;;;4.90;79.31;94430.44;4202781;28;20051;-70
2020/12/09 06:13:32;;;;;;;20.67;13.43;;;;;;;4.92;79.54;94442.31;4193214;28;20059;-69
2020/12/09 06:15:33;;;;;;;15.20;11.27;;;;;;;4.95;79.82;94433.47;4169395;28;20144;-71
2020/12/09 06:17:34;;;;;;;16.48;11.73;;;;;;;5.05;79.62;94430.91;4185744;28;20087;-70
2020/12/09 06:19:36;;;;;;;17.33;11.95;;;;;;;4.95;79.79;94438.66;4173837;28;20072;-71
2020/12/09 06:21:37;;;;;;;16.70;11.13;;;;;;;4.93;79.68;94443.97;4173525;28;20086;-69
2020/12/09 06:23:38;;;;;;;15.57;11.30;;;;;;;4.90;79.25;94440.81;4173285;28;20045;-70
2020/12/09 06:25:41;;;;;;;18.08;12.18;;;;;;;4.95;79.82;94443.84;4174355;28;20055;-69
2020/12/09 06:27:42;;;;;;;22.10;13.82;;;;;;;4.90;79.14;94452.03;4187921;28;20056;-71
2020/12/09 06:29:44;;;;;;;23.38;14.43;;;;;;;4.93;79.73;94449.19;4173664;28;20053;-70
2020/12/09 06:32:00;;;;;;;23.63;14.73;;;;;;;4.83;79.61;94450.91;4173347;28;20130;-70
2020/12/09 06:34:12;;;;;;;23.48;14.20;;;;;;;4.88;79.62;94450.50;4190511;28;20055;-70
2020/12/09 06:36:22;;;;;;;20.88;13.32;;;;;;;4.84;79.72;94459.50;4192107;28;20138;-71
2020/12/09 06:38:23;;;;;;;20.15;12.57;;;;;;;4.88;80.21;94456.53;4191954;28;20128;-71
2020/12/09 06:40:25;;;;;;;20.80;13.05;;;;;;;4.95;79.42;94445.63;4191106;28;20055;-69
2020/12/09 06:42:26;;;;;;;27.00;18.25;;;;;;;4.98;79.60;94453.97;4189361;28;20524;-70
2020/12/09 06:44:31;;;;;;;19.98;12.93;;;;;;;4.98;79.69;94445.38;4191817;28;20415;-69
2020/12/09 06:46:59;;;;;;;18.73;12.25;;;;;;;5.03;79.75;94440.59;4190966;28;20055;-70
2020/12/09 06:49:01;;;;;;;20.10;12.43;;;;;;;5.14;78.92;94440.47;4170493;28;20127;-70
2020/12/09 06:51:35;;;;;;;19.20;12.70;;;;;;;5.19;78.29;94443.53;4190765;28;20128;-69
2020/12/09 06:53:36;;;;;;;18.33;11.88;;;;;;;5.24;78.74;94450.91;4164464;28;20160;-69
2020/12/09 06:55:38;;;;;;;19.40;12.63;;;;;;;5.28;78.74;94449.69;4196987;28;20056;-68
2020/12/09 06:57:40;;;;;;;20.77;13.25;;;;;;;5.26;78.05;94451.59;4188294;28;20116;-71
2020/12/09 06:59:46;;;;;;;18.70;13.02;;;;;;;5.25;78.03;94457.75;4178359;28;20055;-71
2020/12/09 07:02:01;;;;;;;19.15;12.48;;;;;;;5.19;78.37;94461.69;4187698;28;20454;-69
2020/12/09 07:04:02;;;;;;;23.65;13.70;;;;;;;5.17;78.61;94457.59;4191537;28;20052;-70
2020/12/09 07:06:15;;;;;;;17.98;11.20;;;;;;;5.15;78.83;94447.34;4191116;28;20297;-69
2020/12/09 07:08:17;;;;;;;16.50;10.80;;;;;;;5.15;78.39;94447.34;4190221;28;20114;-70
2020/12/09 07:10:19;;;;;;;16.33;11.00;;;;;;;5.15;78.17;94444.75;4192717;28;20461;-72
2020/12/09 07:12:21;;;;;;;19.25;11.30;;;;;;;4.96;78.70;94440.31;4190122;28;20135;-72
2020/12/09 07:14:23;;;;;;;17.98;12.02;;;;;;;5.00;78.74;94438.28;4191128;28;20048;-71
2020/12/09 07:16:28;;;;;;;18.80;11.32;;;;;;;5.01;78.97;94434.72;4190277;28;20044;-71
2020/12/09 07:18:30;;;;;;;21.88;12.77;;;;;;;5.07;78.23;94434.19;4191000;28;20466;-70
2020/12/09 07:20:32;;;;;;;19.88;12.35;;;;;;;5.03;78.43;94432.81;4191843;28;20106;-68
2020/12/09 07:22:33;;;;;;;20.27;12.43;;;;;;;5.02;77.95;94441.56;4172582;28;20064;-71
2020/12/09 07:24:34;;;;;;;22.45;12.93;;;;;;;5.02;78.85;94432.00;4191653;28;20055;-70
2020/12/09 07:26:52;;;;;;;23.95;13.25;;;;;;;5.04;78.09;94435.28;4189325;28;20061;-71
2020/12/09 07:28:54;;;;;;;21.25;13.57;;;;;;;5.01;78.59;94437.31;4171800;28;20048;-69
2020/12/09 07:31:03;;;;;;;20.08;12.20;;;;;;;5.01;78.34;94429.50;4191146;28;20044;-69
2020/12/09 07:33:04;;;;;;;17.52;10.95;;;;;;;4.97;78.77;94430.72;4191451;28;20059;-71
2020/12/09 07:35:11;;;;;;;21.23;12.25;;;;;;;4.89;78.66;94432.22;4191038;28;20472;-70
2020/12/09 07:37:12;;;;;;;16.63;10.48;;;;;;;4.87;79.18;94434.13;4172389;28;20079;-69
2020/12/09 07:39:28;;;;;;;17.73;10.63;;;;;;;4.86;79.10;94442.88;4190653;28;20052;-70
2020/12/09 07:41:29;;;;;;;15.63;9.25;;;;;;;4.89;78.99;94437.41;4189157;28;20118;-71
2020/12/09 07:43:31;;;;;;;16.27;9.43;;;;;;;4.87;78.85;94444.50;4190616;28;20361;-70
2020/12/09 07:45:37;;;;;;;15.68;9.45;;;;;;;4.90;78.28;94439.06;4191467;28;20411;-73
2020/12/09 07:47:38;;;;;;;17.48;10.90;;;;;;;4.99;78.40;94447.84;4192225;28;20060;-70
2020/12/09 07:49:54;;;;;;;16.83;10.18;;;;;;;5.00;78.23;94453.84;4180226;28;20520;-69
2020/12/09 07:51:57;;;;;;;17.08;10.20;;;;;;;5.00;79.15;94454.66;4183804;28;20455;-70
2020/12/09 07:53:58;;;;;;;19.63;10.55;;;;;;;4.95;78.61;94456.00;4171456;28;20750;-70
2020/12/09 07:55:59;;;;;;;16.55;9.98;;;;;;;4.89;79.13;94440.00;4172448;28;20140;-71
2020/12/09 07:58:08;;;;;;;18.92;11.38;;;;;;;4.84;79.53;94439.59;4171327;28;20643;-71
2020/12/09 08:00:12;;;;;;;16.90;10.18;;;;;;;4.85;79.35;94449.00;4190637;28;20049;-70
2020/12/09 08:02:21;;;;;;;14.88;9.38;;;;;;;4.77;79.05;94441.03;4191071;28;20101;-69
2020/12/09 08:04:24;;;;;;;17.25;10.88;;;;;;;4.90;79.02;94435.63;4190592;28;20053;-70
2020/12/09 08:06:26;;;;;;;18.65;10.23;;;;;;;4.96;79.56;94435.09;4193694;28;20480;-71
2020/12/09 08:08:27;;;;;;;19.13;11.20;;;;;;;4.93;79.13;94438.78;4194082;28;20052;-69
2020/12/09 08:10:34;;;;;;;18.20;11.95;;;;;;;5.00;78.66;94438.28;4175116;28;20490;-69
2020/12/09 08:12:36;;;;;;;18.73;11.63;;;;;;;5.01;79.56;94435.56;4176116;28;20503;-69
2020/12/09 08:14:37;;;;;;;22.92;12.80;;;;;;;5.00;79.73;94435.69;4193483;28;20060;-74
2020/12/09 08:16:39;;;;;;;22.83;12.57;;;;;;;5.08;79.62;94438.44;4193194;28;20567;-70
2020/12/09 08:18:41;;;;;;;20.60;11.93;;;;;;;5.09;79.30;94440.06;4192902;28;20063;-70
2020/12/09 08:20:47;;;;;;;20.75;12.57;;;;;;;5.13;79.57;94444.03;4194234;28;20052;-72
2020/12/09 08:22:58;;;;;;;24.40;14.88;;;;;;;5.18;79.41;94452.25;4175312;28;20141;-70
2020/12/09 08:25:08;;;;;;;24.02;13.80;;;;;;;5.31;78.73;94458.06;4193805;28;20056;-70
2020/12/09 08:27:19;;;;;;;21.20;12.40;;;;;;;5.28;78.65;94460.09;4171330;28;20046;-70
2020/12/09 08:29:20;;;;;;;23.58;13.20;;;;;;;5.34;78.68;94455.19;4192017;28;20060;-69
2020/12/09 08:31:22;;;;;;;24.88;12.70;;;;;;;5.37;78.96;94459.28;4173008;28;20120;-71
2020/12/09 08:33:27;;;;;;;16.17;10.63;;;;;;;5.43;77.88;94461.34;4190266;28;20082;-77
2020/12/09 08:35:42;;;;;;;17.23;10.32;;;;;;;5.30;77.96;94466.78;4200113;28;20085;-79
2020/12/09 08:37:44;;;;;;;17.30;10.02;;;;;;;5.30;78.19;94458.19;4180980;28;20048;-80
2020/12/09 08:39:46;;;;;;;17.85;10.25;;;;;;;5.30;78.50;94452.97;4180364;28;20053;-79
2020/12/09 08:41:47;;;;;;;13.65;9.82;;;;;;;5.27;78.08;94453.22;4176224;28;20053;-80
2020/12/09 08:43:49;;;;;;;16.33;10.25;;;;;;;5.29;78.90;94452.16;4194358;28;20048;-78
2020/12/09 08:45:50;;;;;;;14.45;10.07;;;;;;;5.36;78.49;94449.03;4191160;28;20181;-80
2020/12/09 08:47:52;;;;;;;16.92;12.15;;;;;;;5.46;78.40;94455.06;4205508;28;20084;-80
2020/12/09 08:49:53;;;;;;;16.98;10.65;;;;;;;5.42;77.79;94451.09;4198600;28;20113;-80
2020/12/09 08:51:55;;;;;;;17.65;10.07;;;;;;;5.43;78.06;94444.94;4185305;28;20141;-80
2020/12/09 08:53:58;;;;;;;78.60;34.38;;;;;;;5.42;78.05;94456.28;4200627;28;20047;-78
2020/12/09 08:55:59;;;;;;;274.43;119.77;;;;;;;5.45;78.40;94467.22;4162892;28;20065;-79
2020/12/09 08:58:00;;;;;;;101.70;43.35;;;;;;;5.51;77.96;94452.91;4188773;28;20045;-79
2020/12/09 09:00:07;;;;;;;28.63;16.10;;;;;;;5.50;77.30;94448.63;4202734;28;20048;-81
2020/12/09 09:02:08;;;;;;;17.98;11.05;;;;;;;5.50;77.81;94446.03;4194386;28;20045;-78
2020/12/09 09:04:11;;;;;;;16.85;11.07;;;;;;;5.51;77.52;94434.72;4204886;28;20078;-71
2020/12/09 09:06:12;;;;;;;18.05;10.63;;;;;;;5.56;77.53;94440.31;4180376;28;20083;-69
2020/12/09 09:08:14;;;;;;;19.88;10.27;;;;;;;5.53;77.28;94435.41;4204505;28;20477;-70
2020/12/09 09:10:15;;;;;;;14.13;9.45;;;;;;;5.61;77.36;94434.72;4174857;28;20044;-71
2020/12/09 09:12:16;;;;;;;23.63;9.30;;;;;;;5.60;77.36;94428.69;4182901;28;20095;-70
2020/12/09 09:14:18;;;;;;;15.50;9.88;;;;;;;5.70;76.76;94423.50;4174598;28;20045;-71
2020/12/09 09:16:20;;;;;;;15.90;10.25;;;;;;;5.70;76.40;94418.28;4189814;28;20396;-70
2020/12/09 09:18:22;;;;;;;17.23;9.68;;;;;;;5.83;77.01;94410.22;4190207;28;20048;-79
2020/12/09 09:20:23;;;;;;;15.27;10.25;;;;;;;5.80;76.38;94407.91;4193805;28;20048;-82
2020/12/09 09:22:28;;;;;;;14.73;10.20;;;;;;;5.72;76.89;94430.22;4193184;28;20101;-79
2020/12/09 09:24:29;;;;;;;15.43;10.77;;;;;;;5.86;75.99;94415.16;4195243;28;20131;-80
2020/12/09 09:26:34;;;;;;;14.93;10.23;;;;;;;5.98;75.93;94424.50;4192104;28;20056;-82
2020/12/09 09:28:35;;;;;;;15.85;9.95;;;;;;;6.08;75.71;94427.91;4191689;28;20061;-79
2020/12/09 09:30:36;;;;;;;13.20;9.60;;;;;;;6.08;75.94;94420.09;4191566;28;20649;-80
2020/12/09 09:32:38;;;;;;;14.82;9.90;;;;;;;6.23;75.27;94419.69;4195386;28;20379;-77
2020/12/09 09:34:39;;;;;;;14.88;9.73;;;;;;;6.35;74.63;94421.16;4193713;28;20431;-81